createdAt,value
2023-01-17T00:01:28.725Z,97518.16
2023-01-17T00:03:55.181Z,97521.06
2023-01-17T00:06:23.186Z,97516.91
2023-01-17T00:08:49.551Z,97516.72
2023-01-17T00:11:15.887Z,97507.22
2023-01-17T00:13:42.238Z,97509.69
2023-01-17T00:16:08.752Z,97502.91
2023-01-17T00:18:35.105Z,97502.91
2023-01-17T00:21:01.478Z,97500.22
2023-01-17T00:23:29.189Z,97488.88
2023-01-17T00:25:55.556Z,97485.59
2023-01-17T00:28:22.025Z,97482.91
2023-01-17T00:30:48.397Z,97486.59
2023-01-17T00:33:14.745Z,97478.16
2023-01-17T00:35:41.336Z,97475.69
2023-01-17T00:38:08.936Z,97473.03
2023-01-17T00:40:37.529Z,97469.69
2023-01-17T00:43:04.921Z,97471.56
2023-01-17T00:45:31.222Z,97461.06
2023-01-17T00:47:57.685Z,97461.25
2023-01-17T00:50:24.035Z,97451.56
2023-01-17T00:52:50.390Z,97449.91
2023-01-17T00:55:16.803Z,97446.38
2023-01-17T00:57:44.468Z,97441.88
2023-01-17T01:00:11.179Z,97432.59
2023-01-17T01:02:38.312Z,97437.34
2023-01-17T01:05:04.902Z,97437.53
2023-01-17T01:07:31.275Z,97431.34
2023-01-17T01:09:57.626Z,97429.50
2023-01-17T01:12:23.982Z,97422.28
2023-01-17T01:14:51.628Z,97417.97
2023-01-17T01:17:17.983Z,97428.69
2023-01-17T01:19:44.480Z,97423.53
2023-01-17T01:22:10.849Z,97424.34
2023-01-17T01:24:37.242Z,97413.81
2023-01-17T01:27:03.782Z,97410.16
2023-01-17T01:29:30.118Z,97410.16
2023-01-17T01:31:57.754Z,97401.47
2023-01-17T01:34:24.125Z,97394.47
2023-01-17T01:36:50.432Z,97398.59
2023-01-17T01:39:16.750Z,97391.81
2023-01-17T01:41:43.086Z,97394.47
2023-01-17T01:44:24.271Z,97378.41
2023-01-17T01:46:50.637Z,97381.09
2023-01-17T01:49:20.546Z,97369.56
2023-01-17T01:51:50.468Z,97373.06
2023-01-17T01:54:20.664Z,97371.19
2023-01-17T01:56:47.761Z,97362.75
2023-01-17T01:59:15.822Z,97365.84
2023-01-17T02:01:42.323Z,97354.50
2023-01-17T02:04:09.271Z,97365.22
2023-01-17T02:06:38.522Z,97362.75
2023-01-17T02:09:06.241Z,97351.00
2023-01-17T02:11:33.518Z,97348.56
2023-01-17T02:13:59.973Z,97346.72
2023-01-17T02:16:32.586Z,97344.91
2023-01-17T02:19:03.207Z,97340.81
2023-01-17T02:21:31.757Z,97337.75
2023-01-17T02:24:15.586Z,97333.66
2023-01-17T02:26:47.969Z,97326.63
2023-01-17T02:29:24.226Z,97327.88
2023-01-17T02:31:55.145Z,97322.94
2023-01-17T02:34:24.709Z,97320.66
2023-01-17T02:36:52.632Z,97319.44
2023-01-17T02:39:21.370Z,97318.00
2023-01-17T02:41:51.233Z,97307.50
2023-01-17T02:44:19.172Z,97298.00
2023-01-17T02:46:45.787Z,97306.47
2023-01-17T02:49:14.334Z,97297.38
2023-01-17T02:51:48.928Z,97297.19
2023-01-17T02:54:25.327Z,97299.47
2023-01-17T02:56:59.184Z,97292.66
2023-01-17T02:59:33.492Z,97281.53
2023-01-17T03:02:08.895Z,97282.34
2023-01-17T03:04:40.400Z,97278.19
2023-01-17T03:07:09.382Z,97272.63
2023-01-17T03:09:36.059Z,97267.06
2023-01-17T03:12:03.518Z,97262.09
2023-01-17T03:14:30.418Z,97253.03
2023-01-17T03:16:56.858Z,97252.59
2023-01-17T03:19:23.225Z,97245.19
2023-01-17T03:21:50.867Z,97236.69
2023-01-17T03:24:17.174Z,97240.00
2023-01-17T03:26:43.689Z,97232.59
2023-01-17T03:29:10.029Z,97234.22
2023-01-17T03:31:36.371Z,97234.84
2023-01-17T03:34:02.862Z,97226.34
2023-01-17T03:36:29.243Z,97227.59
2023-01-17T03:38:56.890Z,97224.69
2023-01-17T03:41:23.218Z,97221.78
2023-01-17T03:43:49.541Z,97221.78
2023-01-17T03:46:20.641Z,97216.03
2023-01-17T03:48:47.167Z,97215.84
2023-01-17T03:51:13.476Z,97208.59
2023-01-17T03:53:39.838Z,97206.53
2023-01-17T03:56:07.986Z,97205.09
2023-01-17T03:58:34.423Z,97204.84
2023-01-17T04:01:00.887Z,97200.31
2023-01-17T04:03:27.285Z,97206.31
2023-01-17T04:05:53.706Z,97201.53
2023-01-17T04:08:20.046Z,97209.38
2023-01-17T04:10:46.400Z,97200.50
2023-01-17T04:13:14.017Z,97208.97
2023-01-17T04:15:40.467Z,97201.72
2023-01-17T04:18:07.090Z,97193.44
2023-01-17T04:20:34.457Z,97194.06
2023-01-17T04:23:01.174Z,97193.66
2023-01-17T04:25:27.905Z,97192.84
2023-01-17T04:27:54.290Z,97194.66
2023-01-17T04:30:22.178Z,97188.06
2023-01-17T04:32:48.808Z,97187.00
2023-01-17T04:35:15.197Z,97182.25
2023-01-17T04:37:41.611Z,97182.03
2023-01-17T04:40:08.564Z,97181.84
2023-01-17T04:42:34.903Z,97186.16
2023-01-17T04:45:01.278Z,97187.78
2023-01-17T04:47:29.053Z,97177.69
2023-01-17T04:49:55.500Z,97175.81
2023-01-17T04:52:21.892Z,97172.31
2023-01-17T04:54:48.239Z,97175.59
2023-01-17T04:57:14.639Z,97175.38
2023-01-17T04:59:40.932Z,97167.31
2023-01-17T05:02:07.537Z,97168.97
2023-01-17T05:04:35.325Z,97166.09
2023-01-17T05:07:01.668Z,97158.84
2023-01-17T05:09:28.128Z,97151.59
2023-01-17T05:11:54.498Z,97145.19
2023-01-17T05:14:20.871Z,97153.88
2023-01-17T05:16:47.248Z,97152.00
2023-01-17T05:19:13.742Z,97157.16
2023-01-17T05:21:41.383Z,97151.81
2023-01-17T05:24:07.940Z,97150.94
2023-01-17T05:26:34.269Z,97151.81
2023-01-17T05:29:00.585Z,97154.03
2023-01-17T05:31:26.940Z,97155.47
2023-01-17T05:33:53.402Z,97146.81
2023-01-17T05:36:21.165Z,97146.59
2023-01-17T05:38:48.947Z,97141.84
2023-01-17T05:41:15.381Z,97141.84
2023-01-17T05:43:41.698Z,97142.66
2023-01-17T05:46:08.100Z,97134.59
2023-01-17T05:48:34.527Z,97129.00
2023-01-17T05:51:01.015Z,97130.03
2023-01-17T05:53:27.926Z,97138.69
2023-01-17T05:55:55.677Z,97135.81
2023-01-17T05:58:22.418Z,97133.13
2023-01-17T06:00:49.213Z,97135.81
2023-01-17T06:03:15.689Z,97142.00
2023-01-17T06:05:42.359Z,97146.13
2023-01-17T06:08:08.749Z,97146.13
2023-01-17T06:10:35.071Z,97145.06
2023-01-17T06:13:04.575Z,97154.59
2023-01-17T06:15:31.222Z,97148.44
2023-01-17T06:17:57.568Z,97143.25
2023-01-17T06:20:23.924Z,97149.75
2023-01-17T06:22:50.329Z,97140.59
2023-01-17T06:25:16.692Z,97145.53
2023-01-17T06:27:43.035Z,97146.16
2023-01-17T06:30:11.156Z,97148.41
2023-01-17T06:32:37.480Z,97141.75
2023-01-17T06:35:03.972Z,97151.69
2023-01-17T06:37:30.494Z,97149.81
2023-01-17T06:39:56.822Z,97146.94
2023-01-17T06:42:23.298Z,97148.78
2023-01-17T06:44:49.728Z,97160.34
2023-01-17T06:47:17.395Z,97156.63
2023-01-17T06:49:43.742Z,97158.28
2023-01-17T06:52:10.148Z,97158.28
2023-01-17T06:54:36.480Z,97157.25
2023-01-17T06:57:02.875Z,97158.06
2023-01-17T06:59:29.225Z,97156.44
2023-01-17T07:01:55.543Z,97152.69
2023-01-17T07:04:23.202Z,97155.13
2023-01-17T07:06:49.554Z,97154.13
2023-01-17T07:09:16.077Z,97151.63
2023-01-17T07:11:42.444Z,97161.13
2023-01-17T07:14:11.773Z,97156.53
2023-01-17T07:16:38.291Z,97153.41
2023-01-17T07:19:04.658Z,97155.78
2023-01-17T07:21:32.389Z,97146.38
2023-01-17T07:23:58.751Z,97145.22
2023-01-17T07:26:25.052Z,97140.69
2023-01-17T07:28:51.481Z,97150.94
2023-01-17T07:31:17.895Z,97144.78
2023-01-17T07:33:44.243Z,97148.31
2023-01-17T07:36:10.868Z,97147.53
2023-01-17T07:38:38.588Z,97151.25
2023-01-17T07:41:05.294Z,97147.94
2023-01-17T07:43:31.743Z,97160.72
2023-01-17T07:45:58.144Z,97156.19
2023-01-17T07:48:24.905Z,97153.50
2023-01-17T07:50:52.153Z,97153.28
2023-01-17T07:53:18.494Z,97155.13
2023-01-17T07:55:46.159Z,97153.66
2023-01-17T07:58:12.495Z,97160.06
2023-01-17T08:00:38.914Z,97160.09
2023-01-17T08:03:05.455Z,97167.09
2023-01-17T08:05:32.040Z,97172.47
2023-01-17T08:07:58.437Z,97168.38
2023-01-17T08:10:24.790Z,97167.94
2023-01-17T08:12:52.582Z,97170.59
2023-01-17T08:15:19.026Z,97166.91
2023-01-17T08:17:45.820Z,97177.00
2023-01-17T08:20:12.614Z,97167.31
2023-01-17T08:22:38.979Z,97174.94
2023-01-17T08:25:05.608Z,97179.44
2023-01-17T08:27:32.068Z,97182.75
2023-01-17T08:29:59.771Z,97172.28
2023-01-17T08:32:26.109Z,97181.13
2023-01-17T08:34:52.510Z,97183.19
2023-01-17T08:37:18.873Z,97184.63
2023-01-17T08:39:45.250Z,97190.22
2023-01-17T08:42:11.633Z,97191.22
2023-01-17T08:44:38.105Z,97187.72
2023-01-17T08:47:06.048Z,97182.78
2023-01-17T08:49:32.479Z,97188.53
2023-01-17T08:51:58.998Z,97188.53
2023-01-17T08:54:25.857Z,97187.94
2023-01-17T08:56:52.704Z,97186.91
2023-01-17T08:59:19.056Z,97191.03
2023-01-17T09:01:45.592Z,97184.44
2023-01-17T09:04:13.975Z,97186.69
2023-01-17T09:06:41.287Z,97188.53
2023-01-17T09:09:08.300Z,97182.78
2023-01-17T09:11:34.827Z,97188.75
2023-01-17T09:14:01.186Z,97189.34
2023-01-17T09:16:27.755Z,97196.59
2023-01-17T09:18:54.206Z,97200.03
2023-01-17T09:21:22.008Z,97205.69
2023-01-17T09:23:48.568Z,97207.09
2023-01-17T09:26:18.028Z,97207.78
2023-01-17T09:28:44.558Z,97215.16
2023-01-17T09:31:11.144Z,97209.50
2023-01-17T09:33:38.103Z,97203.88
2023-01-17T09:36:04.716Z,97209.00
2023-01-17T09:38:32.548Z,97204.59
2023-01-17T09:40:58.912Z,97213.25
2023-01-17T09:43:32.194Z,97221.69
2023-01-17T09:45:58.557Z,97230.28
2023-01-17T09:48:28.493Z,97227.19
2023-01-17T09:50:58.865Z,97227.78
2023-01-17T09:53:26.079Z,97223.41
2023-01-17T09:56:00.895Z,97223.41
2023-01-17T09:58:34.366Z,97226.09
2023-01-17T10:01:07.528Z,97234.09
2023-01-17T10:03:43.494Z,97239.44
2023-01-17T10:06:16.187Z,97237.34
2023-01-17T10:08:49.100Z,97237.28
2023-01-17T10:11:25.275Z,97238.88
2023-01-17T10:13:57.551Z,97237.34
2023-01-17T10:16:30.376Z,97236.69
2023-01-17T10:19:06.850Z,97237.66
2023-01-17T10:21:37.718Z,97249.78
2023-01-17T10:24:21.304Z,97240.47
2023-01-17T10:26:50.379Z,97250.78
2023-01-17T10:29:20.053Z,97244.97
2023-01-17T10:31:51.570Z,97248.06
2023-01-17T10:34:19.459Z,97246.31
2023-01-17T10:36:49.402Z,97246.94
2023-01-17T10:39:19.076Z,97246.50
2023-01-17T10:41:47.434Z,97248.16
2023-01-17T10:44:18.536Z,97253.09
2023-01-17T10:46:47.095Z,97249.91
2023-01-17T10:49:16.251Z,97253.91
2023-01-17T10:51:48.253Z,97252.16
2023-01-17T10:54:20.071Z,97251.66
2023-01-17T10:56:47.573Z,97262.22
2023-01-17T10:59:18.815Z,97253.66
2023-01-17T11:01:45.575Z,97258.47
2023-01-17T11:04:16.365Z,97251.59
2023-01-17T11:06:57.358Z,97253.22
2023-01-17T11:09:36.704Z,97252.38
2023-01-17T11:12:03.162Z,97248.56
2023-01-17T11:14:31.783Z,97258.28
2023-01-17T11:16:58.923Z,97245.97
2023-01-17T11:19:27.334Z,97242.91
2023-01-17T11:21:54.890Z,97247.50
2023-01-17T11:24:26.361Z,97249.25
2023-01-17T11:26:52.700Z,97249.03
2023-01-17T11:29:34.643Z,97256.34
2023-01-17T11:32:12.174Z,97245.03
2023-01-17T11:34:38.532Z,97239.72
2023-01-17T11:37:08.985Z,97238.09
2023-01-17T11:39:35.417Z,97244.47
2023-01-17T11:42:05.824Z,97244.44
2023-01-17T11:44:34.071Z,97242.03
2023-01-17T11:47:09.804Z,97241.84
2023-01-17T11:49:36.259Z,97247.22
2023-01-17T11:52:07.944Z,97244.16
2023-01-17T11:54:34.965Z,97239.59
2023-01-17T11:57:01.576Z,97236.09
2023-01-17T11:59:29.531Z,97239.59
2023-01-17T12:02:04.136Z,97238.97
2023-01-17T12:04:35.034Z,97233.66
2023-01-17T12:07:10.535Z,97231.00
2023-01-17T12:09:42.460Z,97222.31
2023-01-17T12:12:14.056Z,97227.06
2023-01-17T12:14:45.635Z,97223.88
2023-01-17T12:17:26.023Z,97228.22
2023-01-17T12:19:56.382Z,97233.19
2023-01-17T12:22:28.708Z,97234.84
2023-01-17T12:25:00.717Z,97222.84
2023-01-17T12:27:33.710Z,97219.78
2023-01-17T12:30:07.796Z,97217.75
2023-01-17T12:32:40.451Z,97211.56
2023-01-17T12:35:11.706Z,97208.34
2023-01-17T12:37:40.194Z,97216.53
2023-01-17T12:40:15.040Z,97217.91
2023-01-17T12:42:43.863Z,97213.75
2023-01-17T12:45:13.273Z,97213.31
2023-01-17T12:47:44.374Z,97215.72
2023-01-17T12:50:20.797Z,97213.91
2023-01-17T12:52:54.656Z,97214.13
2023-01-17T12:55:27.555Z,97213.03
2023-01-17T12:57:56.961Z,97210.63
2023-01-17T13:00:25.752Z,97214.00
2023-01-17T13:02:57.347Z,97207.19
2023-01-17T13:05:26.508Z,97203.25
2023-01-17T13:07:56.300Z,97213.75
2023-01-17T13:10:28.540Z,97206.91
2023-01-17T13:12:59.071Z,97210.91
2023-01-17T13:15:27.801Z,97210.72
2023-01-17T13:18:03.655Z,97210.09
2023-01-17T13:20:33.261Z,97219.41
2023-01-17T13:23:03.881Z,97211.41
2023-01-17T13:25:35.288Z,97213.88
2023-01-17T13:28:02.902Z,97223.16
2023-01-17T13:30:35.772Z,97217.91
2023-01-17T13:33:10.451Z,97216.44
2023-01-17T13:35:39.145Z,97219.50
2023-01-17T13:38:16.113Z,97211.69
2023-01-17T13:40:50.876Z,97214.94
2023-01-17T13:43:19.946Z,97214.22
2023-01-17T13:45:52.196Z,97213.84
2023-01-17T13:48:29.084Z,97206.59
2023-01-17T13:50:56.313Z,97222.22
2023-01-17T13:53:32.835Z,97221.47
2023-01-17T13:56:02.205Z,97223.78
2023-01-17T13:58:28.660Z,97232.09
2023-01-17T14:00:57.508Z,97231.66
2023-01-17T14:03:38.756Z,97239.13
2023-01-17T14:06:27.780Z,97242.66
2023-01-17T14:08:54.333Z,97242.28
2023-01-17T14:11:20.771Z,97243.06
2023-01-17T14:13:47.131Z,97243.13
2023-01-17T14:16:25.468Z,97248.69
2023-01-17T14:18:52.469Z,97249.13
2023-01-17T14:21:22.111Z,97250.81
2023-01-17T14:23:51.423Z,97253.47
2023-01-17T14:26:20.971Z,97262.97
2023-01-17T14:28:47.592Z,97254.53
2023-01-17T14:31:15.236Z,97266.06
2023-01-17T14:33:41.935Z,97261.13
2023-01-17T14:36:12.269Z,97265.63
2023-01-17T14:38:43.233Z,97268.53
2023-01-17T14:41:11.146Z,97274.31
2023-01-17T14:43:40.836Z,97277.19
2023-01-17T14:46:08.800Z,97285.84
2023-01-17T14:48:39.111Z,97277.78
2023-01-17T14:51:11.507Z,97288.13
2023-01-17T14:53:38.030Z,97294.69
2023-01-17T14:56:13.747Z,97295.75
2023-01-17T14:58:40.169Z,97306.66
2023-01-17T15:01:11.060Z,97310.97
2023-01-17T15:03:43.269Z,97305.84
2023-01-17T15:06:11.257Z,97316.56
2023-01-17T15:08:37.681Z,97320.06
2023-01-17T15:11:05.800Z,97324.19
2023-01-17T15:13:43.749Z,97324.63
2023-01-17T15:16:18.104Z,97328.91
2023-01-17T15:18:44.940Z,97338.84
2023-01-17T15:21:14.280Z,97341.91
2023-01-17T15:23:43.745Z,97340.69
2023-01-17T15:26:13.747Z,97349.38
2023-01-17T15:28:41.980Z,97355.34
2023-01-17T15:31:19.087Z,97357.59
2023-01-17T15:33:46.552Z,97360.50
2023-01-17T15:36:22.139Z,97358.66
2023-01-17T15:38:51.297Z,97366.66
2023-01-17T15:41:21.298Z,97370.59
2023-01-17T15:43:49.183Z,97374.53
2023-01-17T15:46:24.772Z,97377.41
2023-01-17T15:48:51.425Z,97380.50
2023-01-17T15:51:30.051Z,97391.06
2023-01-17T15:53:56.503Z,97395.38
2023-01-17T15:56:29.200Z,97401.38
2023-01-17T15:59:17.029Z,97398.84
2023-01-17T16:01:52.113Z,97408.19
2023-01-17T16:04:30.990Z,97410.44
2023-01-17T16:07:11.300Z,97405.91
2023-01-17T16:09:43.789Z,97418.47
2023-01-17T16:12:16.225Z,97425.91
2023-01-17T16:15:02.539Z,97420.75
2023-01-17T16:17:30.739Z,97424.88
2023-01-17T16:20:06.570Z,97428.97
2023-01-17T16:22:33.270Z,97439.53
2023-01-17T16:24:59.723Z,97452.06
2023-01-17T16:27:26.091Z,97455.97
2023-01-17T16:29:56.352Z,97465.88
2023-01-17T16:32:22.815Z,97469.63
2023-01-17T16:34:49.197Z,97469.69
2023-01-17T16:37:15.538Z,97473.38
2023-01-17T16:39:41.866Z,97486.81
2023-01-17T16:42:11.018Z,97485.16
2023-01-17T16:44:37.386Z,97499.00
2023-01-17T16:47:05.024Z,97506.63
2023-01-17T16:49:32.400Z,97507.22
2023-01-17T16:51:58.978Z,97507.03
2023-01-17T16:54:25.422Z,97516.56
2023-01-17T16:56:51.937Z,97524.16
2023-01-17T16:59:18.346Z,97522.31
2023-01-17T17:01:44.860Z,97530.97
2023-01-17T17:04:12.591Z,97533.47
2023-01-17T17:06:39.175Z,97538.63
2023-01-17T17:09:05.567Z,97546.28
2023-01-17T17:11:31.874Z,97551.41
2023-01-17T17:13:58.299Z,97544.19
2023-01-17T17:16:26.383Z,97563.00
2023-01-17T17:18:55.110Z,97564.03
2023-01-17T17:21:23.118Z,97560.75
2023-01-17T17:23:51.815Z,97577.88
2023-01-17T17:26:18.162Z,97588.00
2023-01-17T17:28:44.651Z,97594.38
2023-01-17T17:31:11.067Z,97592.16
2023-01-17T17:33:37.467Z,97602.47
2023-01-17T17:36:04.988Z,97609.06
2023-01-17T17:38:32.690Z,97606.56
2023-01-17T17:41:03.717Z,97614.41
2023-01-17T17:43:30.109Z,97621.44
2023-01-17T17:45:56.408Z,97633.59
2023-01-17T17:48:22.687Z,97641.47
2023-01-17T17:50:55.195Z,97651.38
2023-01-17T17:53:21.601Z,97662.28
2023-01-17T17:55:49.209Z,97669.09
2023-01-17T17:58:15.607Z,97681.28
2023-01-17T18:00:42.027Z,97681.03
2023-01-17T18:03:08.383Z,97680.59
2023-01-17T18:05:34.768Z,97697.75
2023-01-17T18:08:01.093Z,97702.69
2023-01-17T18:10:27.424Z,97708.81
2023-01-17T18:12:55.092Z,97718.94
2023-01-17T18:15:21.464Z,97715.22
2023-01-17T18:17:47.756Z,97718.28
2023-01-17T18:20:14.104Z,97715.81
2023-01-17T18:22:40.553Z,97709.16
2023-01-17T18:25:07.664Z,97714.75
2023-01-17T18:27:33.992Z,97712.91
2023-01-17T18:30:01.658Z,97726.94
2023-01-17T18:32:28.107Z,97730.84
2023-01-17T18:34:54.439Z,97740.94
2023-01-17T18:37:20.808Z,97747.34
2023-01-17T18:39:47.244Z,97744.66
2023-01-17T18:42:13.575Z,97763.44
2023-01-17T18:44:39.947Z,97762.38
2023-01-17T18:47:07.623Z,97782.16
2023-01-17T18:49:34.117Z,97785.06
2023-01-17T18:52:00.530Z,97793.91
2023-01-17T18:54:26.931Z,97792.44
2023-01-17T18:56:54.213Z,97799.88
2023-01-17T18:59:20.544Z,97803.56
2023-01-17T19:01:47.149Z,97808.50
2023-01-17T19:04:15.887Z,97814.06
2023-01-17T19:06:43.183Z,97818.78
2023-01-17T19:09:11.141Z,97821.28
2023-01-17T19:11:37.473Z,97830.53
2023-01-17T19:14:04.116Z,97830.53
2023-01-17T19:16:31.963Z,97835.25
2023-01-17T19:19:01.305Z,97841.66
2023-01-17T19:21:29.081Z,97838.13
2023-01-17T19:23:56.084Z,97840.00
2023-01-17T19:26:22.636Z,97847.41
2023-01-17T19:28:49.661Z,97844.09
2023-01-17T19:31:17.040Z,97844.28
2023-01-17T19:33:44.553Z,97846.13
2023-01-17T19:36:12.421Z,97858.72
2023-01-17T19:38:40.088Z,97863.03
2023-01-17T19:41:07.290Z,97863.41
2023-01-17T19:43:33.718Z,97862.81
2023-01-17T19:46:00.470Z,97860.13
2023-01-17T19:48:27.365Z,97863.84
2023-01-17T19:50:53.831Z,97871.88
2023-01-17T19:53:20.192Z,97869.38
2023-01-17T19:55:47.871Z,97870.41
2023-01-17T19:58:14.252Z,97880.28
2023-01-17T20:00:46.560Z,97886.66
2023-01-17T20:03:13.366Z,97896.56
2023-01-17T20:05:39.693Z,97893.88
2023-01-17T20:08:06.146Z,97904.59
2023-01-17T20:10:32.463Z,97909.34
2023-01-17T20:13:00.106Z,97915.69
2023-01-17T20:15:26.538Z,97909.72
2023-01-17T20:17:52.892Z,97912.19
2023-01-17T20:20:19.209Z,97914.25
2023-01-17T20:22:45.723Z,97918.59
2023-01-17T20:25:12.383Z,97929.50
2023-01-17T20:27:39.340Z,97930.34
2023-01-17T20:30:19.200Z,97927.81
2023-01-17T20:32:46.355Z,97933.19
2023-01-17T20:35:12.740Z,97941.22
2023-01-17T20:37:39.089Z,97951.13
2023-01-17T20:40:06.020Z,97957.50
2023-01-17T20:42:35.510Z,97969.22
2023-01-17T20:45:01.858Z,97968.22
2023-01-17T20:47:29.500Z,97966.53
2023-01-17T20:49:55.823Z,97979.13
2023-01-17T20:52:22.137Z,97971.28
2023-01-17T20:54:48.525Z,97980.16
2023-01-17T20:57:14.924Z,97976.44
2023-01-17T20:59:41.288Z,97990.88
2023-01-17T21:02:08.857Z,97994.38
2023-01-17T21:04:36.862Z,97993.56
2023-01-17T21:07:03.242Z,97996.22
2023-01-17T21:09:29.632Z,98005.94
2023-01-17T21:11:56.196Z,98006.94
2023-01-17T21:14:22.539Z,98018.69
2023-01-17T21:16:48.978Z,98015.19
2023-01-17T21:19:15.570Z,98024.06
2023-01-17T21:21:43.285Z,98022.22
2023-01-17T21:24:09.864Z,98032.94
2023-01-17T21:26:36.334Z,98028.59
2023-01-17T21:29:02.710Z,98039.13
2023-01-17T21:31:30.119Z,98045.50
2023-01-17T21:33:57.471Z,98052.53
2023-01-17T21:36:25.458Z,98062.41
2023-01-17T21:38:54.024Z,98067.13
2023-01-17T21:41:21.447Z,98076.84
2023-01-17T21:43:47.973Z,98077.84
2023-01-17T21:46:14.349Z,98081.34
2023-01-17T21:48:40.735Z,98077.00
2023-01-17T21:51:07.764Z,98085.06
2023-01-17T21:53:34.304Z,98099.28
2023-01-17T21:56:02.258Z,98106.50
2023-01-17T21:58:28.564Z,98101.31
2023-01-17T22:00:55.010Z,98104.84
2023-01-17T22:03:21.343Z,98106.69
2023-01-17T22:05:47.668Z,98106.69
2023-01-17T22:08:14.110Z,98116.59
2023-01-17T22:10:40.735Z,98117.41
2023-01-17T22:13:08.381Z,98122.94
2023-01-17T22:15:34.879Z,98129.13
2023-01-17T22:18:01.261Z,98127.47
2023-01-17T22:20:27.607Z,98130.97
2023-01-17T22:22:54.093Z,98134.69
2023-01-17T22:25:20.689Z,98151.59
2023-01-17T22:27:47.039Z,98150.97
2023-01-17T22:30:15.238Z,98159.00
2023-01-17T22:32:41.605Z,98168.69
2023-01-17T22:35:08.538Z,98163.50
2023-01-17T22:37:34.893Z,98164.34
2023-01-17T22:40:01.411Z,98175.06
2023-01-17T22:42:27.777Z,98175.91
2023-01-17T22:44:54.090Z,98180.44
2023-01-17T22:47:21.828Z,98185.81
2023-01-17T22:49:48.188Z,98183.13
2023-01-17T22:52:14.500Z,98187.44
2023-01-17T22:54:40.862Z,98186.78
2023-01-17T22:57:07.162Z,98192.97
2023-01-17T22:59:33.656Z,98189.47
2023-01-17T23:01:59.966Z,98192.97
2023-01-17T23:04:27.683Z,98198.34
2023-01-17T23:06:54.224Z,98194.84
2023-01-17T23:09:20.851Z,98202.72
2023-01-17T23:11:48.327Z,98209.06
2023-01-17T23:14:15.782Z,98210.09
2023-01-17T23:16:43.132Z,98214.41
2023-01-17T23:19:09.658Z,98214.63
2023-01-17T23:21:37.354Z,98218.13
2023-01-17T23:24:03.959Z,98225.13
2023-01-17T23:26:30.425Z,98231.53
2023-01-17T23:28:56.964Z,98247.59
2023-01-17T23:31:23.495Z,98249.44
2023-01-17T23:33:50.036Z,98257.28
2023-01-17T23:36:16.462Z,98257.28
2023-01-17T23:38:44.190Z,98259.97
2023-01-17T23:41:10.625Z,98258.31
2023-01-17T23:43:37.243Z,98262.84
2023-01-17T23:46:04.103Z,98265.34
2023-01-17T23:48:31.018Z,98259.97
2023-01-17T23:50:58.446Z,98261.81
2023-01-17T23:53:25.176Z,98265.34
2023-01-17T23:55:53.874Z,98267.03
2023-01-17T23:58:21.387Z,98267.19
